createdAt,value
2023-04-18T00:00:12.609Z,0.2
2023-04-18T00:03:13.105Z,0.3
2023-04-18T00:06:12.559Z,0.25
2023-04-18T00:09:12.631Z,0.45
2023-04-18T00:12:12.522Z,0.35
2023-04-18T00:15:12.584Z,0.35
2023-04-18T00:18:12.595Z,0.75
2023-04-18T00:21:12.649Z,0.75
2023-04-18T00:24:13.010Z,0.6
2023-04-18T00:27:12.590Z,0.6
2023-04-18T00:30:12.667Z,0.35
2023-04-18T00:33:12.614Z,0.25
2023-04-18T00:36:12.603Z,0.2
2023-04-18T00:39:12.620Z,0.25
2023-04-18T00:42:12.658Z,0.5
2023-04-18T00:45:12.616Z,0.75
2023-04-18T00:48:12.584Z,0.45
2023-04-18T00:51:12.684Z,0.65
2023-04-18T00:54:13.363Z,0.65
2023-04-18T00:57:12.583Z,0.5
2023-04-18T01:00:12.627Z,0.45
2023-04-18T01:03:12.892Z,0.2
2023-04-18T01:06:12.542Z,1.15
2023-04-18T01:09:12.787Z,0.35
2023-04-18T01:12:12.607Z,1.25
2023-04-18T01:15:12.742Z,0.9
2023-04-18T01:18:12.691Z,0.6
2023-04-18T01:21:12.631Z,1
2023-04-18T01:24:13.293Z,0.6
2023-04-18T01:27:12.620Z,0.5
2023-04-18T01:30:12.633Z,0.45
2023-04-18T01:33:12.579Z,0.35
2023-04-18T01:36:12.701Z,0.15
2023-04-18T01:39:12.683Z,1
2023-04-18T01:42:12.782Z,0.85
2023-04-18T01:45:12.642Z,0.9
2023-04-18T01:48:12.737Z,0.65
2023-04-18T01:51:12.752Z,0.6
2023-04-18T01:54:13.501Z,0.4
2023-04-18T01:57:12.618Z,0.4
2023-04-18T02:00:12.634Z,0.3
2023-04-18T02:03:13.029Z,0.6
2023-04-18T02:06:12.633Z,0.6
2023-04-18T02:09:12.702Z,0.45
2023-04-18T02:12:12.642Z,0.4
2023-04-18T02:15:12.707Z,0.4
2023-04-18T02:18:12.728Z,0.35
2023-04-18T02:21:12.795Z,1
2023-04-18T02:24:13.400Z,0.6
2023-04-18T02:27:12.742Z,0.45
2023-04-18T02:30:12.713Z,0.4
2023-04-18T02:33:12.794Z,0.6
2023-04-18T02:36:12.723Z,0.35
2023-04-18T02:39:12.778Z,1
2023-04-18T02:42:12.653Z,0.4
2023-04-18T02:45:12.753Z,1.25
2023-04-18T02:48:12.847Z,0.25
2023-04-18T02:51:12.794Z,0.35
2023-04-18T02:54:13.205Z,0.5
2023-04-18T02:57:12.774Z,0.7
2023-04-18T03:00:12.768Z,1.25
2023-04-18T03:03:12.846Z,0.55
2023-04-18T03:06:12.737Z,0.75
2023-04-18T03:09:12.723Z,0.95
2023-04-18T03:12:12.760Z,1.25
2023-04-18T03:15:12.803Z,0.9
2023-04-18T03:18:12.833Z,1.2
2023-04-18T03:21:12.699Z,0.75
2023-04-18T03:24:13.646Z,1.05
2023-04-18T03:27:12.842Z,1.4
2023-04-18T03:30:12.832Z,0.75
2023-04-18T03:33:12.744Z,1.65
2023-04-18T03:36:12.798Z,1.3
2023-04-18T03:39:12.801Z,1.7
2023-04-18T03:42:12.900Z,1.45
2023-04-18T03:45:12.777Z,1.25
2023-04-18T03:48:12.897Z,0.95
2023-04-18T03:51:12.904Z,1.35
2023-04-18T03:54:13.272Z,1.45
2023-04-18T03:57:12.811Z,1.45
2023-04-18T04:00:12.852Z,1.75
2023-04-18T04:03:13.373Z,1.35
2023-04-18T04:06:12.713Z,1.55
2023-04-18T04:09:12.814Z,1.05
2023-04-18T04:12:12.698Z,1.9
2023-04-18T04:15:12.845Z,1.45
2023-04-18T04:18:12.742Z,1
2023-04-18T04:21:12.863Z,1.05
2023-04-18T04:24:13.354Z,1.2
2023-04-18T04:27:12.806Z,1.35
2023-04-18T04:30:14.562Z,1
2023-04-18T04:33:12.861Z,1.45
2023-04-18T04:36:12.731Z,1.45
2023-04-18T04:39:12.850Z,1.05
2023-04-18T04:42:12.827Z,1.35
2023-04-18T04:45:12.806Z,1.4
2023-04-18T04:48:12.846Z,1.5
2023-04-18T04:51:12.911Z,1.1
2023-04-18T04:54:13.112Z,1.35
2023-04-18T04:57:12.812Z,1.35
2023-04-18T05:00:12.757Z,1.9
2023-04-18T05:03:13.150Z,0.8
2023-04-18T05:06:12.787Z,1.4
2023-04-18T05:09:12.908Z,1.1
2023-04-18T05:12:12.859Z,1.35
2023-04-18T05:15:12.844Z,0.95
2023-04-18T05:18:12.919Z,1.55
2023-04-18T05:21:12.874Z,1.5
2023-04-18T05:24:13.253Z,0.95
2023-04-18T05:27:12.923Z,1.3
2023-04-18T05:30:13.127Z,1.35
2023-04-18T05:33:12.849Z,1.75
2023-04-18T05:36:12.963Z,1.3
2023-04-18T05:39:12.789Z,2
2023-04-18T05:42:12.981Z,1.4
2023-04-18T05:45:12.756Z,1.2
2023-04-18T05:48:12.904Z,0.85
2023-04-18T05:51:13.009Z,1.05
2023-04-18T05:54:13.381Z,0.9
2023-04-18T05:57:12.973Z,1.55
2023-04-18T06:00:12.940Z,1.05
2023-04-18T06:03:13.529Z,1.15
2023-04-18T06:06:12.956Z,1.2
2023-04-18T06:09:12.960Z,1.35
2023-04-18T06:12:12.912Z,1.2
2023-04-18T06:15:12.978Z,0.95
2023-04-18T06:18:12.847Z,1.5
2023-04-18T06:21:12.860Z,1.3
2023-04-18T06:24:13.457Z,2.25
2023-04-18T06:27:28.168Z,0.95
2023-04-18T06:30:12.935Z,0.85
2023-04-18T06:33:12.904Z,1.5
2023-04-18T06:36:13.115Z,1.5
2023-04-18T06:39:12.877Z,1.1
2023-04-18T06:42:12.941Z,1.05
2023-04-18T06:45:13.015Z,1.15
2023-04-18T06:48:12.973Z,1.7
2023-04-18T06:51:12.930Z,1.1
2023-04-18T06:54:13.224Z,1.15
2023-04-18T06:57:25.676Z,1.1
2023-04-18T07:00:28.560Z,1.25
2023-04-18T07:03:13.748Z,1.55
2023-04-18T07:06:12.996Z,1.3
2023-04-18T07:09:13.065Z,1.5
2023-04-18T07:12:12.951Z,0.8
2023-04-18T07:15:12.948Z,0.95
2023-04-18T07:18:26.700Z,1.1
2023-04-18T07:21:13.019Z,1.05
2023-04-18T07:24:13.564Z,1.2
2023-04-18T07:27:13.012Z,1.3
2023-04-18T07:30:12.901Z,2.15
2023-04-18T07:33:13.122Z,1.7
2023-04-18T07:36:12.951Z,1.75
2023-04-18T07:39:13.123Z,1.15
2023-04-18T07:42:13.067Z,1.45
2023-04-18T07:45:12.957Z,1.9
2023-04-18T07:48:12.987Z,1.95
2023-04-18T07:51:12.975Z,1.4
2023-04-18T07:54:12.992Z,1.75
2023-04-18T07:57:13.004Z,1.9
2023-04-18T08:00:13.040Z,1.55
2023-04-18T08:03:13.750Z,1.85
2023-04-18T08:06:13.417Z,1.8
2023-04-18T08:09:13.675Z,1.05
2023-04-18T08:12:12.994Z,1.5
2023-04-18T08:15:13.097Z,1.7
2023-04-18T08:18:13.053Z,1.35
2023-04-18T08:21:13.034Z,1.2
2023-04-18T08:24:13.044Z,1.75
2023-04-18T08:27:13.030Z,1.2
2023-04-18T08:30:13.130Z,1.55
2023-04-18T08:33:13.162Z,1.4
2023-04-18T08:36:13.120Z,1.75
2023-04-18T08:39:13.565Z,1.6
2023-04-18T08:42:13.112Z,1.8
2023-04-18T08:45:12.997Z,1.6
2023-04-18T08:48:13.054Z,1.65
2023-04-18T08:51:13.045Z,1.5
2023-04-18T08:54:13.122Z,1.45
2023-04-18T08:57:13.002Z,2
2023-04-18T09:03:14.180Z,1.65
2023-04-18T09:06:13.048Z,1.9
2023-04-18T09:09:13.519Z,1.75
2023-04-18T09:12:13.164Z,1.85
2023-04-18T09:15:12.998Z,1.6
2023-04-18T09:18:13.489Z,2
2023-04-18T09:21:13.029Z,1.9
2023-04-18T09:24:13.508Z,1.8
2023-04-18T09:27:13.057Z,1.75
2023-04-18T09:30:13.123Z,1.5
2023-04-18T09:33:13.080Z,1.25
2023-04-18T09:36:13.037Z,1.7
2023-04-18T09:39:13.329Z,1.35
2023-04-18T09:42:13.153Z,2.25
2023-04-18T09:45:13.083Z,2.1
2023-04-18T09:48:13.062Z,1.55
2023-04-18T09:51:13.032Z,2.9
2023-04-18T09:54:13.828Z,1.65
2023-04-18T09:57:13.154Z,1.4
2023-04-18T10:00:13.169Z,2.55
2023-04-18T10:03:13.597Z,2.05
2023-04-18T10:06:13.118Z,2.65
2023-04-18T10:09:13.602Z,1.6
2023-04-18T10:12:13.229Z,1.3
2023-04-18T10:15:13.118Z,2.2
2023-04-18T10:18:13.307Z,1.3
2023-04-18T10:21:13.113Z,0.85
2023-04-18T10:24:13.643Z,1.9
2023-04-18T10:27:13.177Z,1.85
2023-04-18T10:33:28.679Z,2.4
2023-04-18T10:36:15.853Z,2.1
2023-04-18T10:39:13.072Z,2.45
2023-04-18T10:42:13.161Z,2.85
2023-04-18T10:45:13.205Z,2.05
2023-04-18T10:48:13.156Z,1.25
2023-04-18T10:51:13.201Z,2.7
2023-04-18T10:54:13.640Z,2.05
2023-04-18T10:57:13.185Z,1.75
2023-04-18T11:00:13.250Z,2.15
2023-04-18T11:03:13.594Z,1.9
2023-04-18T11:06:13.716Z,2
2023-04-18T11:09:13.264Z,2.15
2023-04-18T11:12:13.110Z,2.75
2023-04-18T11:15:13.117Z,1.75
2023-04-18T11:18:13.221Z,2.4
2023-04-18T11:21:13.169Z,2.15
2023-04-18T11:24:13.674Z,2.25
2023-04-18T11:27:13.219Z,2.3
2023-04-18T11:30:13.150Z,1.35
2023-04-18T11:33:13.320Z,2.2
2023-04-18T11:36:13.224Z,2.05
2023-04-18T11:39:13.279Z,1.95
2023-04-18T11:42:13.198Z,1.85
2023-04-18T11:45:13.248Z,2.3
2023-04-18T11:48:13.250Z,2.35
2023-04-18T11:51:13.195Z,2.2
2023-04-18T11:54:13.498Z,3.15
2023-04-18T11:57:13.329Z,2.1
2023-04-18T12:00:13.190Z,1.9
2023-04-18T12:03:15.160Z,1.55
2023-04-18T12:06:13.247Z,2.75
2023-04-18T12:09:13.306Z,2.4
2023-04-18T12:12:13.242Z,2.15
2023-04-18T12:15:13.147Z,2.45
2023-04-18T12:18:15.632Z,2.45
2023-04-18T12:21:13.198Z,1.8
2023-04-18T12:24:13.728Z,2.1
2023-04-18T12:27:13.273Z,2.4
2023-04-18T12:30:13.331Z,1.6
2023-04-18T12:33:13.281Z,2.65
2023-04-18T12:36:13.304Z,1.85
2023-04-18T12:39:13.595Z,2.45
2023-04-18T12:42:13.302Z,2.05
2023-04-18T12:45:13.186Z,2.2
2023-04-18T12:48:13.228Z,1.75
2023-04-18T12:51:13.258Z,2.4
2023-04-18T12:54:13.800Z,1.45
2023-04-18T12:57:13.624Z,1.45
2023-04-18T13:00:13.500Z,1.25
2023-04-18T13:03:14.879Z,1.55
2023-04-18T13:06:13.362Z,1.85
2023-04-18T13:09:13.826Z,1.3
2023-04-18T13:12:13.297Z,2.5
2023-04-18T13:15:13.345Z,1.9
2023-04-18T13:18:13.249Z,1.95
2023-04-18T13:21:13.362Z,1.9
2023-04-18T13:24:15.509Z,1.5
2023-04-18T13:27:13.671Z,1.55
2023-04-18T13:30:13.377Z,1.45
2023-04-18T13:33:13.769Z,2.1
2023-04-18T13:36:13.953Z,1.6
2023-04-18T13:39:13.914Z,0.9
2023-04-18T13:42:17.046Z,1.45
2023-04-18T13:45:13.340Z,1.1
2023-04-18T13:48:16.385Z,1.7
2023-04-18T13:51:13.289Z,2.4
2023-04-18T13:54:13.376Z,2.15
2023-04-18T13:57:13.339Z,2.3
2023-04-18T14:00:13.346Z,2
2023-04-18T14:03:13.670Z,1.9
2023-04-18T14:06:13.519Z,2.2
2023-04-18T14:09:13.741Z,2.1
2023-04-18T14:12:13.336Z,2.3
2023-04-18T14:15:13.329Z,2.3
2023-04-18T14:18:13.443Z,2.4
2023-04-18T14:21:13.429Z,3.1
2023-04-18T14:24:13.375Z,2.85
2023-04-18T14:27:13.436Z,2.2
2023-04-18T14:30:13.323Z,2.3
2023-04-18T14:33:13.470Z,2.15
2023-04-18T14:36:13.425Z,2.15
2023-04-18T14:39:14.070Z,1.5
2023-04-18T14:42:13.401Z,0.9
2023-04-18T14:45:13.408Z,1.55
2023-04-18T14:48:13.421Z,1.2
2023-04-18T14:51:13.377Z,0.8
2023-04-18T14:54:13.527Z,2.35
2023-04-18T14:57:13.444Z,1.35
2023-04-18T15:00:13.430Z,1.4
2023-04-18T15:03:13.852Z,1.25
2023-04-18T15:06:13.407Z,1.4
2023-04-18T15:09:13.421Z,1.35
2023-04-18T15:12:13.499Z,1.15
2023-04-18T15:15:13.274Z,1.05
2023-04-18T15:18:13.456Z,1.1
2023-04-18T15:21:13.457Z,1.45
2023-04-18T15:24:13.908Z,2.65
2023-04-18T15:27:13.397Z,1.8
2023-04-18T15:30:13.393Z,1.45
2023-04-18T15:33:13.305Z,1.6
2023-04-18T15:36:13.408Z,1.65
2023-04-18T15:39:13.468Z,1
2023-04-18T15:42:13.368Z,1.3
2023-04-18T15:45:13.432Z,1
2023-04-18T15:48:13.554Z,1.85
2023-04-18T15:51:13.645Z,0.65
2023-04-18T15:54:14.321Z,1
2023-04-18T15:57:13.388Z,0.6
2023-04-18T16:00:13.543Z,1
2023-04-18T16:03:13.764Z,0.75
2023-04-18T16:06:13.433Z,1.45
2023-04-18T16:09:13.503Z,1.3
2023-04-18T16:12:13.443Z,1.15
2023-04-18T16:15:13.445Z,1.8
2023-04-18T16:18:13.320Z,1
2023-04-18T16:21:16.488Z,0.7
2023-04-18T16:24:13.841Z,1.55
2023-04-18T16:27:13.446Z,0.95
2023-04-18T16:30:13.652Z,0.95
2023-04-18T16:33:13.751Z,0.95
2023-04-18T16:36:13.475Z,0.65
2023-04-18T16:39:13.473Z,0.75
2023-04-18T16:42:16.420Z,0.7
2023-04-18T16:45:13.558Z,0.6
2023-04-18T16:48:15.362Z,0.4
2023-04-18T16:51:13.478Z,0.75
2023-04-18T16:54:14.085Z,0.85
2023-04-18T16:57:13.520Z,0.9
2023-04-18T17:00:13.444Z,1.6
2023-04-18T17:03:13.744Z,1.2
2023-04-18T17:06:13.434Z,0.85
2023-04-18T17:09:16.146Z,0.95
2023-04-18T17:12:13.521Z,0.6
2023-04-18T17:15:13.484Z,0.75
2023-04-18T17:18:13.584Z,0.6
2023-04-18T17:21:13.544Z,0.75
2023-04-18T17:24:13.477Z,0.75
2023-04-18T17:27:13.402Z,0.8
2023-04-18T17:30:13.590Z,0.6
2023-04-18T17:33:13.520Z,1.45
2023-04-18T17:36:13.575Z,1.05
2023-04-18T17:39:13.996Z,1.1
2023-04-18T17:42:13.645Z,1.95
2023-04-18T17:45:13.530Z,1.55
2023-04-18T17:48:13.546Z,1.1
2023-04-18T17:51:13.463Z,0.55
2023-04-18T17:54:13.509Z,0.65
2023-04-18T17:57:13.605Z,1.7
2023-04-18T18:00:13.510Z,1.25
2023-04-18T18:03:13.997Z,1.1
2023-04-18T18:06:13.547Z,0.75
2023-04-18T18:09:14.001Z,1.55
2023-04-18T18:12:13.562Z,1.95
2023-04-18T18:15:13.570Z,0.95
2023-04-18T18:18:13.502Z,1
2023-04-18T18:21:13.491Z,1.25
2023-04-18T18:24:13.588Z,1.1
2023-04-18T18:27:13.518Z,0.85
2023-04-18T18:30:13.689Z,1
2023-04-18T18:33:13.802Z,1.35
2023-04-18T18:36:13.729Z,0.8
2023-04-18T18:39:14.149Z,0.65
2023-04-18T18:42:13.676Z,0.65
2023-04-18T18:45:13.684Z,1
2023-04-18T18:48:13.827Z,1.1
2023-04-18T18:51:13.775Z,0.45
2023-04-18T18:54:13.793Z,1.8
2023-04-18T18:57:13.615Z,1.4
2023-04-18T19:00:13.624Z,0.9
2023-04-18T19:03:13.976Z,1.05
2023-04-18T19:06:13.600Z,1.05
2023-04-18T19:09:14.006Z,1.65
2023-04-18T19:12:13.608Z,1.85
2023-04-18T19:15:13.500Z,1.95
2023-04-18T19:18:13.780Z,1.05
2023-04-18T19:21:13.730Z,1.15
2023-04-18T19:24:13.532Z,1
2023-04-18T19:27:13.781Z,1.15
2023-04-18T19:30:13.773Z,1.6
2023-04-18T19:33:13.617Z,1.1
2023-04-18T19:36:13.566Z,0.95
2023-04-18T19:39:14.166Z,0.5
2023-04-18T19:42:13.653Z,0.75
2023-04-18T19:45:13.613Z,0.7
2023-04-18T19:48:13.606Z,1.1
2023-04-18T19:51:13.704Z,0.7
2023-04-18T19:54:13.643Z,0.45
2023-04-18T19:57:13.571Z,0.7
2023-04-18T20:00:13.581Z,0.8
2023-04-18T20:03:14.586Z,0.4
2023-04-18T20:06:13.714Z,0.75
2023-04-18T20:09:14.636Z,0.6
2023-04-18T20:12:13.704Z,0.6
2023-04-18T20:15:13.646Z,0.55
2023-04-18T20:18:13.619Z,0.4
2023-04-18T20:21:13.731Z,0.3
2023-04-18T20:24:13.725Z,0.5
2023-04-18T20:27:13.721Z,0.65
2023-04-18T20:30:13.775Z,0.55
2023-04-18T20:33:13.772Z,1.25
2023-04-18T20:36:14.253Z,1.15
2023-04-18T20:39:14.328Z,1.75
2023-04-18T20:42:13.644Z,1.2
2023-04-18T20:45:13.670Z,1.4
2023-04-18T20:48:13.648Z,0.8
2023-04-18T20:51:13.711Z,1.45
2023-04-18T20:54:14.035Z,1.2
2023-04-18T20:57:13.775Z,0.7
2023-04-18T21:00:13.680Z,1.35
2023-04-18T21:03:13.980Z,0.9
2023-04-18T21:06:13.782Z,0.95
2023-04-18T21:09:13.981Z,0.95
2023-04-18T21:12:13.646Z,0.6
2023-04-18T21:15:13.740Z,0.85
2023-04-18T21:18:13.828Z,1
2023-04-18T21:21:13.610Z,0.75
2023-04-18T21:24:13.883Z,0.85
2023-04-18T21:27:13.658Z,0.5
2023-04-18T21:30:13.682Z,1.3
2023-04-18T21:33:13.794Z,1
2023-04-18T21:36:13.640Z,0.55
2023-04-18T21:39:13.717Z,1.1
2023-04-18T21:42:13.733Z,0.4
2023-04-18T21:45:13.752Z,0.45
2023-04-18T21:48:13.670Z,1.1
2023-04-18T21:51:13.748Z,1.05
2023-04-18T21:54:14.219Z,1.15
2023-04-18T21:57:13.740Z,0.5
2023-04-18T22:00:13.836Z,0.55
2023-04-18T22:03:13.957Z,0.5
2023-04-18T22:06:13.735Z,0.65
2023-04-18T22:09:13.730Z,0.6
2023-04-18T22:12:13.685Z,0.75
2023-04-18T22:15:13.668Z,0.65
2023-04-18T22:18:13.877Z,0.5
2023-04-18T22:21:13.748Z,0.4
2023-04-18T22:24:14.139Z,1.65
2023-04-18T22:27:13.796Z,0.75
2023-04-18T22:30:13.852Z,0.95
2023-04-18T22:33:13.782Z,0.55
2023-04-18T22:36:13.704Z,1.3
2023-04-18T22:39:13.745Z,1.5
2023-04-18T22:42:13.800Z,0.7
2023-04-18T22:45:13.749Z,0.9
2023-04-18T22:48:13.800Z,0.55
2023-04-18T22:51:13.845Z,0.9
2023-04-18T22:54:14.495Z,0.75
2023-04-18T22:57:13.775Z,1.1
2023-04-18T23:00:13.780Z,0.7
2023-04-18T23:03:14.224Z,1.4
2023-04-18T23:06:13.762Z,1.2
2023-04-18T23:09:13.854Z,1
2023-04-18T23:12:13.826Z,1.45
2023-04-18T23:15:13.809Z,0.55
2023-04-18T23:18:13.811Z,0.75
2023-04-18T23:21:13.757Z,0.75
2023-04-18T23:24:14.151Z,1.2
2023-04-18T23:27:13.829Z,0.8
2023-04-18T23:30:13.816Z,0.75
2023-04-18T23:33:13.892Z,1.25
2023-04-18T23:36:13.869Z,0.55
2023-04-18T23:39:13.804Z,0.55
2023-04-18T23:42:13.796Z,0.8
2023-04-18T23:45:13.812Z,1.3
2023-04-18T23:48:13.728Z,0.9
2023-04-18T23:51:13.830Z,1.15
2023-04-18T23:54:14.285Z,0.9
2023-04-18T23:57:13.924Z,0.65
